Time;durP1;ratioP1;P1;durP2;ratioP2;P2;SDS_P1;SDS_P2;PMS_P1;PMS_P2;Temp;Humidity;BMP_temperature;BMP_pressure;BME280_temperature;BME280_humidity;BME280_pressure;Samples;Min_cycle;Max_cycle;Signal;HPM_P1;HPM_P2
2021/10/09 00:02:21;;;;;;;17.63;11.87;;;7.30;99.90;;;;;;5054165;28;20208;-61
2021/10/09 00:04:49;;;;;;;17.70;12.43;;;7.20;99.90;;;;;;5060188;28;20280;-61
2021/10/09 00:07:17;;;;;;;17.07;11.60;;;7.30;99.90;;;;;;5073977;28;20712;-61
2021/10/09 00:09:46;;;;;;;17.70;11.87;;;7.20;99.90;;;;;;5074207;28;20201;-61
2021/10/09 00:12:14;;;;;;;16.47;12.80;;;7.20;99.90;;;;;;5073894;28;20200;-60
2021/10/09 00:14:42;;;;;;;20.40;12.23;;;7.20;99.90;;;;;;5072307;28;20205;-59
2021/10/09 00:17:14;;;;;;;18.40;12.07;;;7.10;99.90;;;;;;5053831;28;20221;-60
2021/10/09 00:19:42;;;;;;;19.50;12.97;;;7.20;99.90;;;;;;5054039;28;20186;-60
2021/10/09 00:22:10;;;;;;;21.10;13.43;;;7.10;99.90;;;;;;5053997;28;20201;-61
2021/10/09 00:24:38;;;;;;;19.00;12.33;;;7.10;99.90;;;;;;5053355;28;20612;-60
2021/10/09 00:27:06;;;;;;;18.53;12.37;;;7.00;99.90;;;;;;5071728;28;20208;-61
2021/10/09 00:29:33;;;;;;;16.50;11.73;;;7.00;99.90;;;;;;5073781;28;20227;-60
2021/10/09 00:32:01;;;;;;;17.77;13.47;;;7.00;99.90;;;;;;5073740;28;20292;-60
2021/10/09 00:34:30;;;;;;;19.27;13.00;;;6.90;99.90;;;;;;5073520;28;20200;-60
2021/10/09 00:36:58;;;;;;;16.70;12.90;;;6.90;99.90;;;;;;5058433;28;20678;-61
2021/10/09 00:39:26;;;;;;;17.10;12.40;;;7.00;99.90;;;;;;5053420;28;20293;-61
2021/10/09 00:41:54;;;;;;;18.60;13.17;;;6.90;99.90;;;;;;5053454;28;20229;-60
2021/10/09 00:44:22;;;;;;;17.73;12.87;;;6.90;99.90;;;;;;5053502;28;20205;-61
2021/10/09 00:46:50;;;;;;;19.97;12.80;;;6.90;99.90;;;;;;5063360;28;20203;-60
2021/10/09 00:49:17;;;;;;;20.53;13.43;;;6.90;99.90;;;;;;5073394;28;20299;-60
2021/10/09 00:51:48;;;;;;;19.87;13.10;;;6.80;99.90;;;;;;5073203;28;20201;-60
2021/10/09 00:54:19;;;;;;;17.53;13.43;;;6.80;99.90;;;;;;5072988;28;20685;-60
2021/10/09 00:56:48;;;;;;;16.67;12.63;;;6.70;99.90;;;;;;5071371;28;20224;-61
2021/10/09 00:59:16;;;;;;;18.57;13.40;;;6.70;99.90;;;;;;5072763;28;20300;-60
2021/10/09 01:01:44;;;;;;;21.47;13.83;;;6.60;99.90;;;;;;5073046;28;20208;-60
2021/10/09 01:04:12;;;;;;;20.87;13.83;;;6.60;99.90;;;;;;5073096;28;20196;-60
2021/10/09 01:06:40;;;;;;;20.57;13.23;;;6.60;99.90;;;;;;5072382;28;20287;-60
2021/10/09 01:09:09;;;;;;;19.97;13.00;;;6.60;99.90;;;;;;5072822;28;20662;-61
2021/10/09 01:11:38;;;;;;;21.10;13.67;;;6.60;99.90;;;;;;5072659;28;20273;-60
2021/10/09 01:14:07;;;;;;;18.70;13.50;;;6.60;99.90;;;;;;5073019;28;20605;-61
2021/10/09 01:16:35;;;;;;;27.80;13.47;;;6.60;99.90;;;;;;5073073;28;20208;-70
2021/10/09 01:19:03;;;;;;;20.10;13.30;;;6.50;99.90;;;;;;5054191;28;20635;-68
2021/10/09 01:21:42;;;;;;;18.30;12.40;;;6.50;99.90;;;;;;5053124;28;20294;-69
2021/10/09 01:24:10;;;;;;;20.97;14.23;;;6.40;99.90;;;;;;5052805;28;20278;-68
2021/10/09 01:26:39;;;;;;;23.33;13.80;;;6.40;99.90;;;;;;5052767;28;20206;-68
2021/10/09 01:29:09;;;;;;;19.37;13.60;;;6.40;99.90;;;;;;5068095;28;20234;-68
2021/10/09 01:31:36;;;;;;;19.03;14.77;;;6.30;99.90;;;;;;5070765;28;20200;-68
2021/10/09 01:34:05;;;;;;;24.37;14.00;;;6.30;99.90;;;;;;5072755;28;20240;-68
2021/10/09 01:36:34;;;;;;;19.23;13.23;;;6.20;99.90;;;;;;5072714;28;20218;-68
2021/10/09 01:39:05;;;;;;;17.73;13.90;;;6.30;99.90;;;;;;5060521;28;20239;-69
2021/10/09 01:41:38;;;;;;;18.73;14.03;;;6.30;99.90;;;;;;5052384;28;20193;-68
2021/10/09 01:44:06;;;;;;;22.27;14.33;;;6.20;99.90;;;;;;5052662;28;20188;-69
2021/10/09 01:46:34;;;;;;;21.47;13.80;;;6.20;99.90;;;;;;5052640;28;20587;-69
2021/10/09 01:49:02;;;;;;;20.23;13.90;;;6.20;99.90;;;;;;5060979;28;20192;-68
2021/10/09 01:51:30;;;;;;;20.33;13.77;;;6.30;99.90;;;;;;5071793;28;20200;-68
2021/10/09 01:53:59;;;;;;;18.87;13.50;;;6.20;99.90;;;;;;5072725;28;20670;-68
2021/10/09 01:56:28;;;;;;;20.90;14.03;;;6.20;99.90;;;;;;5072249;28;20294;-69
2021/10/09 01:58:56;;;;;;;20.33;14.37;;;6.10;99.90;;;;;;5066396;28;20239;-69
2021/10/09 02:01:24;;;;;;;22.40;13.80;;;6.10;99.90;;;;;;5052615;28;20219;-68
2021/10/09 02:03:52;;;;;;;19.00;14.70;;;6.10;99.90;;;;;;5052535;28;20212;-69
2021/10/09 02:06:19;;;;;;;18.83;13.93;;;6.10;99.90;;;;;;5071165;28;20670;-68
2021/10/09 02:08:47;;;;;;;21.53;13.70;;;6.00;99.90;;;;;;5071774;28;20220;-68
2021/10/09 02:11:17;;;;;;;22.47;14.00;;;5.90;99.90;;;;;;5072105;28;20206;-68
2021/10/09 02:13:51;;;;;;;21.17;14.40;;;5.90;99.90;;;;;;5072047;28;20208;-69
2021/10/09 02:16:48;;;;;;;22.47;14.67;;;5.90;99.90;;;;;;5072310;28;20191;-69
2021/10/09 02:25:02;;;;;;;20.13;14.37;;;5.90;99.90;;;;;;5052124;28;20301;-69
2021/10/09 02:27:30;;;;;;;23.30;15.77;;;5.90;99.90;;;;;;5051696;28;20243;-67
2021/10/09 02:29:59;;;;;;;19.70;14.57;;;5.90;99.90;;;;;;5057064;28;20188;-69
2021/10/09 02:32:27;;;;;;;25.50;15.03;;;5.90;99.90;;;;;;5072239;28;20200;-68
2021/10/09 02:34:54;;;;;;;21.27;14.87;;;5.90;99.90;;;;;;5072327;28;20292;-68
2021/10/09 02:37:22;;;;;;;19.93;14.70;;;5.90;99.90;;;;;;5072032;28;20294;-69
2021/10/09 02:39:50;;;;;;;21.07;15.60;;;5.90;99.90;;;;;;5070594;28;20230;-68
2021/10/09 02:42:18;;;;;;;22.93;14.87;;;5.90;99.90;;;;;;5051643;28;20205;-68
2021/10/09 02:44:46;;;;;;;21.27;14.53;;;6.00;99.90;;;;;;5051613;28;20728;-69
2021/10/09 02:47:15;;;;;;;19.57;14.47;;;5.90;99.90;;;;;;5051968;28;20203;-68
2021/10/09 02:49:43;;;;;;;20.53;14.33;;;5.90;99.90;;;;;;5051466;28;20620;-70
2021/10/09 02:52:10;;;;;;;22.07;15.30;;;5.90;99.90;;;;;;5060020;28;20288;-70
2021/10/09 02:54:38;;;;;;;22.73;14.90;;;5.90;99.90;;;;;;5051761;28;20203;-67
2021/10/09 02:57:06;;;;;;;20.60;15.03;;;5.90;99.90;;;;;;5051086;28;20294;-68
2021/10/09 02:59:34;;;;;;;19.90;14.10;;;5.90;99.90;;;;;;5051645;28;20221;-69
2021/10/09 03:02:02;;;;;;;23.13;16.20;;;5.90;99.90;;;;;;5058388;28;20207;-68
2021/10/09 03:04:31;;;;;;;22.37;15.50;;;5.90;99.90;;;;;;5075130;28;20200;-68
2021/10/09 03:06:59;;;;;;;25.53;15.60;;;6.00;99.90;;;;;;5075279;28;20311;-69
2021/10/09 03:09:27;;;;;;;21.33;15.47;;;6.00;99.90;;;;;;5074922;28;20210;-68
2021/10/09 03:11:55;;;;;;;22.63;15.50;;;6.00;99.90;;;;;;5074631;28;20206;-68
2021/10/09 03:14:24;;;;;;;25.03;15.27;;;6.00;99.90;;;;;;5074836;28;20231;-67
2021/10/09 03:16:52;;;;;;;22.20;15.17;;;6.00;99.90;;;;;;5075185;28;20214;-69
2021/10/09 03:19:20;;;;;;;20.97;15.40;;;5.90;99.90;;;;;;5074813;28;20323;-68
2021/10/09 03:21:49;;;;;;;23.00;15.80;;;6.00;99.90;;;;;;5075144;28;20638;-69
2021/10/09 03:24:17;;;;;;;22.07;15.00;;;5.70;99.90;;;;;;5057493;28;20233;-68
2021/10/09 03:26:44;;;;;;;24.37;16.23;;;5.90;99.90;;;;;;5054816;28;20209;-69
2021/10/09 03:29:12;;;;;;;23.87;16.13;;;5.90;99.90;;;;;;5055313;28;20886;-71
2021/10/09 03:31:40;;;;;;;20.27;15.33;;;5.90;99.90;;;;;;5055468;28;20207;-69
2021/10/09 03:34:08;;;;;;;22.17;14.77;;;5.90;99.90;;;;;;5067902;28;20202;-68
2021/10/09 03:36:36;;;;;;;22.10;15.33;;;5.80;99.90;;;;;;5075267;28;20209;-68
2021/10/09 03:39:10;;;;;;;23.37;15.83;;;5.80;99.90;;;;;;5075475;28;20230;-67
2021/10/09 03:41:41;;;;;;;19.23;15.33;;;5.80;99.90;;;;;;5075624;28;20184;-69
2021/10/09 03:44:09;;;;;;;22.57;15.90;;;5.80;99.90;;;;;;5065027;28;20193;-68
2021/10/09 03:46:42;;;;;;;24.23;16.90;;;5.80;99.90;;;;;;5055217;28;20301;-68
2021/10/09 03:49:21;;;;;;;22.23;16.60;;;5.80;99.90;;;;;;5054987;28;20298;-69
2021/10/09 03:54:35;;;;;;;25.63;16.17;;;5.80;99.90;;;;;;5066041;28;20191;-69
2021/10/09 03:57:03;;;;;;;24.40;15.87;;;5.80;99.90;;;;;;5075944;28;20295;-69
2021/10/09 03:59:32;;;;;;;24.97;16.60;;;5.80;99.90;;;;;;5076641;28;20286;-68
2021/10/09 04:01:59;;;;;;;23.23;16.13;;;5.90;99.90;;;;;;5077179;28;20204;-69
2021/10/09 04:04:29;;;;;;;23.07;16.33;;;5.90;99.90;;;;;;5072053;28;20195;-68
2021/10/09 04:06:56;;;;;;;26.63;16.07;;;5.80;99.90;;;;;;5075060;28;20247;-69
2021/10/09 04:09:24;;;;;;;24.23;17.10;;;5.80;99.90;;;;;;5074683;28;20200;-68
2021/10/09 04:11:54;;;;;;;23.10;15.67;;;5.80;99.90;;;;;;5074082;28;20681;-69
2021/10/09 04:14:21;;;;;;;21.57;16.67;;;5.80;99.90;;;;;;5073818;28;20293;-68
2021/10/09 04:16:49;;;;;;;23.33;15.90;;;5.70;99.90;;;;;;5074698;28;20203;-68
2021/10/09 04:19:17;;;;;;;23.00;16.33;;;5.70;99.90;;;;;;5075172;28;20247;-70
2021/10/09 04:21:45;;;;;;;21.47;16.00;;;5.60;99.90;;;;;;5075966;28;20303;-68
2021/10/09 04:24:15;;;;;;;25.20;17.27;;;5.60;99.90;;;;;;5074441;28;20327;-69
2021/10/09 04:26:42;;;;;;;25.67;17.10;;;5.50;99.90;;;;;;5075198;28;20342;-68
2021/10/09 04:29:12;;;;;;;26.87;16.67;;;5.60;99.90;;;;;;5076926;28;20298;-68
2021/10/09 04:31:40;;;;;;;23.27;16.00;;;5.60;99.90;;;;;;5078059;28;20203;-69
2021/10/09 04:34:08;;;;;;;22.37;16.13;;;5.50;99.90;;;;;;5077269;28;20213;-69
2021/10/09 04:36:35;;;;;;;24.50;16.10;;;5.50;99.90;;;;;;5061516;28;20235;-68
2021/10/09 04:39:04;;;;;;;19.80;16.23;;;5.50;99.90;;;;;;5057262;28;20204;-68
2021/10/09 04:41:32;;;;;;;20.97;16.60;;;5.50;99.90;;;;;;5058963;28;20622;-71
2021/10/09 04:44:00;;;;;;;26.40;16.40;;;5.50;99.90;;;;;;5058230;28;20299;-70
2021/10/09 04:46:29;;;;;;;25.07;15.90;;;5.40;99.90;;;;;;5069945;28;20199;-68
2021/10/09 04:48:57;;;;;;;24.23;16.10;;;5.40;99.90;;;;;;5078591;28;20302;-68
2021/10/09 04:51:25;;;;;;;22.20;16.67;;;5.40;99.90;;;;;;5077580;28;20333;-68
2021/10/09 04:53:53;;;;;;;21.53;15.53;;;5.40;99.90;;;;;;5076924;28;20264;-69
2021/10/09 04:56:21;;;;;;;24.50;16.93;;;5.30;99.90;;;;;;5070945;28;20259;-69
2021/10/09 04:58:49;;;;;;;22.57;16.87;;;5.30;99.90;;;;;;5058905;28;20201;-68
2021/10/09 05:01:17;;;;;;;23.73;16.03;;;5.30;99.90;;;;;;5059314;28;20310;-69
2021/10/09 05:03:46;;;;;;;22.27;16.83;;;5.30;99.90;;;;;;5056999;28;20205;-68
2021/10/09 05:06:14;;;;;;;20.83;15.77;;;5.40;99.90;;;;;;5074043;28;20282;-68
2021/10/09 05:08:42;;;;;;;24.33;15.87;;;5.40;99.90;;;;;;5077292;28;20241;-68
2021/10/09 05:11:10;;;;;;;23.47;16.43;;;5.30;99.90;;;;;;5077587;28;20250;-68
2021/10/09 05:13:38;;;;;;;24.10;16.87;;;5.20;99.90;;;;;;5076815;28;20240;-68
2021/10/09 05:16:06;;;;;;;26.27;16.57;;;5.20;99.90;;;;;;5077613;28;20298;-68
2021/10/09 05:18:34;;;;;;;23.77;15.73;;;5.20;99.90;;;;;;5077205;28;20287;-69
2021/10/09 05:21:03;;;;;;;26.97;15.60;;;5.20;99.90;;;;;;5077681;28;20281;-68
2021/10/09 05:23:32;;;;;;;21.97;15.70;;;5.20;99.90;;;;;;5076492;28;20330;-69
2021/10/09 05:26:00;;;;;;;28.70;16.63;;;5.30;99.90;;;;;;5077522;28;20774;-68
2021/10/09 05:28:32;;;;;;;26.90;16.77;;;5.30;99.90;;;;;;5060878;28;20617;-69
2021/10/09 05:31:01;;;;;;;25.50;16.73;;;5.20;99.90;;;;;;5057321;28;20271;-69
2021/10/09 05:33:38;;;;;;;21.83;15.60;;;5.20;99.90;;;;;;5057435;28;20207;-70
2021/10/09 05:36:07;;;;;;;22.80;15.37;;;5.20;99.90;;;;;;5057562;28;20187;-68
2021/10/09 05:38:35;;;;;;;23.67;15.83;;;5.30;99.90;;;;;;5069835;28;20205;-68
2021/10/09 05:41:03;;;;;;;20.70;15.70;;;5.20;99.90;;;;;;5074598;28;20708;-69
2021/10/09 05:43:32;;;;;;;21.83;16.07;;;5.20;99.90;;;;;;5075527;28;20298;-68
2021/10/09 05:46:00;;;;;;;26.80;16.67;;;5.20;99.90;;;;;;5075819;28;20227;-68
2021/10/09 05:48:28;;;;;;;23.37;16.10;;;5.20;99.90;;;;;;5065360;28;20743;-69
2021/10/09 05:51:01;;;;;;;22.40;16.50;;;5.20;99.90;;;;;;5055485;28;20362;-70
2021/10/09 05:56:23;;;;;;;23.47;15.93;;;5.20;99.90;;;;;;5056326;28;20284;-69
2021/10/09 05:59:02;;;;;;;22.83;16.37;;;5.20;99.90;;;;;;5065538;28;20736;-70
2021/10/09 06:32:19;;;;;;;30.10;17.50;;;5.70;99.90;;;;;;5072368;28;20270;-70
2021/10/09 06:38:13;;;;;;;23.73;16.07;;;5.90;99.90;;;;;;5076110;28;20186;-68
2021/10/09 06:59:55;;;;;;;23.67;16.30;;;6.50;99.90;;;;;;5055633;28;20268;-69
2021/10/09 07:02:23;;;;;;;26.03;15.93;;;6.60;99.90;;;;;;5062449;28;20192;-69
2021/10/09 07:04:51;;;;;;;23.70;16.13;;;6.70;99.90;;;;;;5075715;28;20328;-69
2021/10/09 07:07:20;;;;;;;25.13;16.30;;;6.70;99.90;;;;;;5075295;28;20663;-71
2021/10/09 07:09:48;;;;;;;24.03;16.17;;;6.80;99.90;;;;;;5075509;28;20294;-68
2021/10/09 07:12:15;;;;;;;21.40;15.63;;;6.90;99.90;;;;;;5074462;28;20202;-70
2021/10/09 07:14:44;;;;;;;24.00;15.13;;;7.00;99.90;;;;;;5075244;28;20702;-69
2021/10/09 07:17:13;;;;;;;24.40;16.10;;;7.10;99.90;;;;;;5075573;28;20291;-68
2021/10/09 07:19:41;;;;;;;21.67;15.23;;;7.10;99.90;;;;;;5075343;28;20284;-68
2021/10/09 07:22:09;;;;;;;22.80;15.50;;;7.20;99.90;;;;;;5075066;28;20323;-69
2021/10/09 07:24:56;;;;;;;22.17;15.10;;;7.30;99.90;;;;;;5054843;28;20215;-69
2021/10/09 07:27:24;;;;;;;18.17;13.87;;;7.40;99.90;;;;;;5055023;28;20299;-68
2021/10/09 07:29:52;;;;;;;21.23;14.83;;;7.50;99.90;;;;;;5055258;28;20206;-70
2021/10/09 07:32:21;;;;;;;16.67;12.97;;;7.50;99.90;;;;;;5054702;28;20197;-69
2021/10/09 07:34:49;;;;;;;17.83;13.53;;;7.70;99.90;;;;;;5073493;28;20211;-69
2021/10/09 07:37:17;;;;;;;21.03;13.70;;;7.70;99.90;;;;;;5074966;28;20224;-69
2021/10/09 07:39:45;;;;;;;25.27;13.40;;;7.80;99.90;;;;;;5074988;28;20200;-68
2021/10/09 07:42:13;;;;;;;17.77;13.03;;;7.80;99.90;;;;;;5074625;28;20220;-69
2021/10/09 07:44:41;;;;;;;20.17;13.00;;;7.80;99.90;;;;;;5060053;28;20323;-68
2021/10/09 07:47:10;;;;;;;20.67;13.30;;;7.90;99.90;;;;;;5054076;28;20228;-68
2021/10/09 07:49:39;;;;;;;19.37;13.03;;;8.00;99.90;;;;;;5054992;28;20205;-69
2021/10/09 07:52:07;;;;;;;21.47;13.87;;;8.00;99.90;;;;;;5054700;28;20285;-69
2021/10/09 07:54:35;;;;;;;19.97;13.20;;;8.10;99.90;;;;;;5065415;28;20201;-70
2021/10/09 07:57:04;;;;;;;17.73;13.37;;;8.20;99.90;;;;;;5074283;28;20206;-69
2021/10/09 07:59:33;;;;;;;18.63;13.47;;;8.30;99.90;;;;;;5074608;28;20200;-70
2021/10/09 08:02:02;;;;;;;20.10;13.47;;;;;;;;;;5074219;28;20307;-70
2021/10/09 08:04:30;;;;;;;18.87;13.67;;;8.40;99.90;;;;;;5070698;28;20205;-70
2021/10/09 08:06:59;;;;;;;18.03;13.03;;;8.50;99.90;;;;;;5074649;28;20231;-69
2021/10/09 08:09:30;;;;;;;20.97;13.60;;;8.60;99.90;;;;;;5073758;28;20197;-70
2021/10/09 08:11:58;;;;;;;18.30;13.67;;;8.60;99.90;;;;;;5074419;28;20181;-70
2021/10/09 08:14:26;;;;;;;20.77;14.10;;;8.70;99.90;;;;;;5069791;28;20233;-70
2021/10/09 08:16:54;;;;;;;19.10;13.43;;;8.70;99.90;;;;;;5054270;28;20728;-70
2021/10/09 08:19:22;;;;;;;20.07;13.23;;;8.60;99.90;;;;;;5056117;28;20293;-69
2021/10/09 08:21:51;;;;;;;21.10;13.53;;;8.70;99.90;;;;;;5066281;28;20307;-68
2021/10/09 08:24:28;;;;;;;19.97;12.80;;;8.70;99.90;;;;;;5073860;28;20804;-69
2021/10/09 08:27:07;;;;;;;21.23;12.97;;;8.90;99.90;;;;;;5073848;28;20181;-70
2021/10/09 08:35:30;;;;;;;21.00;12.87;;;9.00;99.90;;;;;;5054266;28;20181;-69
2021/10/09 08:40:45;;;;;;;17.90;13.13;;;9.10;99.90;;;;;;5053897;28;20186;-69
2021/10/09 08:43:13;;;;;;;16.27;12.83;;;9.20;99.90;;;;;;5069596;28;20201;-69
2021/10/09 08:45:41;;;;;;;17.67;12.73;;;9.30;99.90;;;;;;5073353;28;20236;-69
2021/10/09 08:48:09;;;;;;;18.70;12.20;;;9.40;99.90;;;;;;5073025;28;20201;-69
2021/10/09 08:50:37;;;;;;;19.37;13.43;;;9.40;99.90;;;;;;5072651;28;20291;-69
2021/10/09 08:53:09;;;;;;;16.53;12.43;;;9.60;99.90;;;;;;5062159;28;20288;-68
2021/10/09 08:55:38;;;;;;;17.00;11.73;;;9.70;99.90;;;;;;5066859;28;20193;-69
2021/10/09 08:58:10;;;;;;;18.13;12.07;;;9.80;99.90;;;;;;5072895;28;20201;-69
2021/10/09 09:00:49;;;;;;;19.63;12.90;;;9.90;99.90;;;;;;5073242;28;20185;-69
2021/10/09 09:03:20;;;;;;;18.87;12.83;;;10.00;99.90;;;;;;5063541;28;20254;-73
2021/10/09 09:06:07;;;;;;;19.40;12.77;;;10.10;99.90;;;;;;5059994;28;20633;-69
2021/10/09 09:26:04;;;;;;;17.40;11.90;;;10.60;99.90;;;;;;5130951;28;20214;-70
2021/10/09 09:31:33;;;;;;;16.77;12.13;;;10.90;99.90;;;;;;5130297;28;20715;-68
2021/10/09 09:37:10;;;;;;;20.30;12.30;;;11.00;99.90;;;;;;5127112;28;20205;-68
2021/10/09 09:39:39;;;;;;;18.90;12.67;;;11.00;99.90;;;;;;5130681;28;20218;-69
2021/10/09 09:42:08;;;;;;;15.77;11.93;;;11.00;99.90;;;;;;5120783;28;20654;-68
2021/10/09 09:44:51;;;;;;;19.73;12.47;;;11.10;99.90;;;;;;5120279;28;20195;-67
2021/10/09 09:47:19;;;;;;;16.73;11.97;;;11.10;99.90;;;;;;5130389;28;20278;-69
2021/10/09 09:49:56;;;;;;;16.40;11.70;;;11.10;99.90;;;;;;5130523;28;20256;-72
2021/10/09 09:52:25;;;;;;;16.70;12.47;;;11.30;99.90;;;;;;5129908;28;20798;-68
2021/10/09 09:54:54;;;;;;;16.30;12.03;;;11.40;99.90;;;;;;5130017;28;20294;-67
2021/10/09 09:57:23;;;;;;;17.27;11.37;;;11.40;99.90;;;;;;5129739;28;20553;-68
2021/10/09 09:59:55;;;;;;;16.90;11.70;;;11.30;99.90;;;;;;5130084;28;20281;-69
2021/10/09 10:02:27;;;;;;;19.20;11.80;;;11.30;99.90;;;;;;5129939;28;20278;-68
2021/10/09 10:05:01;;;;;;;15.77;11.00;;;11.40;99.90;;;;;;5129899;28;20219;-69
2021/10/09 10:07:29;;;;;;;17.47;11.43;;;11.30;99.90;;;;;;5129500;28;20643;-69
2021/10/09 10:09:57;;;;;;;19.20;11.20;;;11.30;99.90;;;;;;5129479;28;20227;-68
2021/10/09 10:12:25;;;;;;;14.50;11.13;;;11.40;99.90;;;;;;5129121;28;20693;-68
2021/10/09 10:14:55;;;;;;;16.03;10.77;;;11.50;99.90;;;;;;5130683;28;20637;-68
2021/10/09 10:17:42;;;;;;;15.30;11.37;;;11.70;99.90;;;;;;5131471;28;20546;-68
2021/10/09 10:20:11;;;;;;;18.27;11.83;;;11.80;99.90;;;;;;5131729;28;20201;-68
2021/10/09 10:23:02;;;;;;;16.97;12.20;;;11.90;99.90;;;;;;5119363;28;20329;-67
2021/10/09 10:25:33;;;;;;;14.47;11.20;;;11.90;99.90;;;;;;5117803;28;20849;-70
2021/10/09 10:28:03;;;;;;;20.50;11.83;;;12.00;99.90;;;;;;5117441;28;20184;-68
2021/10/09 10:30:34;;;;;;;16.87;10.87;;;12.10;99.90;;;;;;5117765;28;20207;-69
2021/10/09 10:33:25;;;;;;;15.50;10.80;;;12.00;99.90;;;;;;5115955;28;20197;-68
2021/10/09 10:35:53;;;;;;;20.17;11.77;;;12.10;99.90;;;;;;5115915;28;20811;-69
2021/10/09 10:38:49;;;;;;;16.17;11.17;;;12.20;99.90;;;;;;5116043;28;20613;-68
2021/10/09 10:41:21;;;;;;;20.13;11.80;;;12.30;99.90;;;;;;5115702;28;20190;-69
2021/10/09 10:43:52;;;;;;;17.17;10.70;;;12.40;99.90;;;;;;5114427;27;20219;-64
2021/10/09 10:46:41;;;;;;;17.80;10.90;;;12.50;99.90;;;;;;5102523;28;20183;-67
2021/10/09 10:49:16;;;;;;;13.53;10.53;;;12.50;99.90;;;;;;5114340;28;20206;-68
2021/10/09 10:51:51;;;;;;;12.57;9.70;;;12.60;99.90;;;;;;5114363;28;20290;-68
2021/10/09 10:54:32;;;;;;;16.20;10.63;;;12.70;99.90;;;;;;5114594;28;20714;-69
2021/10/09 10:57:20;;;;;;;15.00;9.97;;;12.70;99.90;;;;;;5115215;28;20588;-68
2021/10/09 10:59:59;;;;;;;15.87;10.60;;;12.80;99.90;;;;;;5114657;28;20219;-68
2021/10/09 11:02:30;;;;;;;13.57;10.80;;;12.80;99.90;;;;;;5115094;28;20241;-67
2021/10/09 11:05:01;;;;;;;15.63;10.43;;;12.90;99.90;;;;;;5114804;28;20237;-68
2021/10/09 11:07:30;;;;;;;17.90;10.07;;;12.90;99.90;;;;;;5114798;28;20235;-68
2021/10/09 11:10:04;;;;;;;15.50;10.40;;;12.90;99.90;;;;;;5111995;28;20346;-68
2021/10/09 11:12:34;;;;;;;13.07;8.60;;;12.90;99.90;;;;;;5110969;28;20249;-66
2021/10/09 11:15:05;;;;;;;11.43;7.53;;;13.00;99.90;;;;;;5114633;28;20283;-68
2021/10/09 11:17:36;;;;;;;10.07;7.70;;;13.00;99.90;;;;;;5114750;28;20278;-68
2021/10/09 11:20:06;;;;;;;12.87;7.83;;;13.10;99.90;;;;;;5114510;28;20207;-68
2021/10/09 11:22:41;;;;;;;11.07;6.83;;;13.10;99.90;;;;;;5114396;28;20184;-69
2021/10/09 11:25:10;;;;;;;8.63;6.43;;;13.20;99.90;;;;;;5114604;28;20230;-67
2021/10/09 11:27:39;;;;;;;9.88;7.32;;;13.30;99.90;;;;;;5114281;28;20235;-68
2021/10/09 11:30:09;;;;;;;12.13;7.32;;;13.30;99.90;;;;;;5113960;28;20191;-68
2021/10/09 11:32:40;;;;;;;11.32;7.38;;;13.30;99.90;;;;;;5113983;28;20190;-68
2021/10/09 11:35:10;;;;;;;10.60;6.67;;;13.30;99.90;;;;;;5114090;28;20188;-68
2021/10/09 11:37:47;;;;;;;8.67;7.20;;;13.30;99.90;;;;;;5114655;28;20195;-68
2021/10/09 11:40:15;;;;;;;10.90;6.93;;;13.40;99.90;;;;;;5114347;28;20244;-68
2021/10/09 11:42:53;;;;;;;9.03;6.40;;;13.50;99.90;;;;;;5114182;28;20637;-68
2021/10/09 11:45:27;;;;;;;11.63;6.47;;;13.50;99.90;;;;;;5114274;28;20219;-67
2021/10/09 11:53:48;;;;;;;9.80;6.22;;;13.70;99.90;;;;;;5114272;28;20179;-69
2021/10/09 11:56:17;;;;;;;10.43;5.88;;;13.70;99.90;;;;;;5113939;28;20990;-69
2021/10/09 11:58:47;;;;;;;10.13;6.47;;;13.80;99.90;;;;;;5113579;28;20594;-68
2021/10/09 12:01:26;;;;;;;8.23;5.57;;;13.90;99.90;;;;;;5113685;28;20673;-68
2021/10/09 12:03:56;;;;;;;12.43;6.50;;;13.90;99.90;;;;;;5113565;28;20630;-69
2021/10/09 12:06:41;;;;;;;10.43;6.07;;;14.00;99.90;;;;;;5114007;28;20198;-70
2021/10/09 12:09:10;;;;;;;8.23;5.97;;;13.90;99.90;;;;;;5114103;28;20295;-69
2021/10/09 12:11:38;;;;;;;7.10;5.97;;;13.90;99.90;;;;;;5113703;28;20200;-69
2021/10/09 12:14:12;;;;;;;9.40;5.53;;;14.00;99.90;;;;;;5113565;28;20186;-70
2021/10/09 12:16:42;;;;;;;9.40;5.50;;;13.90;99.90;;;;;;5113671;28;20298;-69
2021/10/09 12:19:12;;;;;;;9.50;6.10;;;14.00;99.90;;;;;;5113462;28;20708;-68
2021/10/09 12:21:59;;;;;;;9.35;6.05;;;14.10;99.90;;;;;;5113481;28;20304;-68
2021/10/09 12:24:29;;;;;;;8.00;5.80;;;14.30;99.90;;;;;;5113525;28;20215;-69
2021/10/09 12:27:02;;;;;;;10.95;5.65;;;14.90;99.90;;;;;;5113561;28;20206;-69
2021/10/09 12:29:31;;;;;;;8.15;5.38;;;15.50;99.90;;;;;;5113504;28;20598;-68
2021/10/09 12:32:14;;;;;;;9.23;5.70;;;15.90;99.90;;;;;;5113253;28;20307;-67
2021/10/09 12:34:43;;;;;;;7.68;5.63;;;16.00;99.90;;;;;;5113466;28;20179;-69
2021/10/09 12:37:20;;;;;;;7.88;5.95;;;15.70;99.90;;;;;;5113546;28;20281;-68
2021/10/09 12:40:05;;;;;;;7.28;5.75;;;15.50;99.90;;;;;;5113211;28;20193;-68
2021/10/09 12:42:34;;;;;;;8.52;5.63;;;15.20;99.90;;;;;;5112940;28;20278;-69
2021/10/09 12:45:03;;;;;;;6.07;5.13;;;15.00;99.90;;;;;;5112695;28;20550;-69
2021/10/09 12:47:50;;;;;;;6.03;4.90;;;14.90;99.90;;;;;;5113192;28;20651;-68
2021/10/09 12:50:19;;;;;;;6.38;5.18;;;14.80;99.90;;;;;;5113328;28;20199;-69
2021/10/09 12:52:48;;;;;;;5.63;4.70;;;14.70;99.90;;;;;;5112880;28;20666;-68
2021/10/09 12:55:20;;;;;;;5.97;4.82;;;14.60;99.90;;;;;;5113124;28;20184;-68
2021/10/09 12:57:50;;;;;;;8.10;5.20;;;14.60;99.90;;;;;;5113231;28;20211;-67
2021/10/09 13:00:19;;;;;;;8.45;5.88;;;14.60;99.90;;;;;;5113028;28;20730;-68
2021/10/09 13:02:47;;;;;;;8.60;5.70;;;14.60;99.90;;;;;;5112936;28;20651;-70
2021/10/09 13:05:15;;;;;;;7.13;5.97;;;14.70;99.90;;;;;;5112574;28;20210;-68
2021/10/09 13:07:44;;;;;;;6.85;4.65;;;14.70;99.90;;;;;;5113001;28;20333;-67
2021/10/09 13:10:12;;;;;;;8.95;5.00;;;14.80;99.90;;;;;;5112382;28;20320;-69
2021/10/09 13:12:40;;;;;;;6.38;4.57;;;14.70;99.90;;;;;;5112999;28;20600;-68
2021/10/09 13:15:08;;;;;;;5.82;4.65;;;14.70;99.90;;;;;;5112684;28;20192;-68
2021/10/09 13:17:37;;;;;;;8.13;4.93;;;14.70;99.90;;;;;;5112810;28;20203;-68
2021/10/09 13:20:06;;;;;;;7.05;4.75;;;14.80;99.90;;;;;;5113049;28;20215;-68
2021/10/09 13:22:34;;;;;;;8.07;5.05;;;14.70;99.90;;;;;;5112760;28;20725;-68
2021/10/09 13:25:23;;;;;;;5.70;4.78;;;14.80;99.90;;;;;;5112730;28;20199;-68
2021/10/09 13:27:51;;;;;;;6.75;4.75;;;14.80;99.90;;;;;;5112484;28;20722;-68
2021/10/09 13:30:19;;;;;;;5.97;4.22;;;14.80;99.90;;;;;;5112826;28;20202;-68
2021/10/09 13:32:46;;;;;;;6.05;4.60;;;14.80;99.90;;;;;;5112765;28;20215;-69
2021/10/09 13:35:14;;;;;;;8.32;5.05;;;15.00;99.90;;;;;;5112470;28;20226;-70
2021/10/09 13:37:48;;;;;;;5.75;4.22;;;14.80;99.90;;;;;;5112848;28;20206;-69
2021/10/09 13:40:16;;;;;;;6.43;4.72;;;14.80;99.90;;;;;;5112663;28;20219;-73
2021/10/09 13:42:46;;;;;;;5.18;4.22;;;14.80;99.90;;;;;;5112534;28;20206;-70
2021/10/09 13:45:14;;;;;;;5.85;4.32;;;14.80;99.90;;;;;;5111848;28;20742;-69
2021/10/09 13:47:42;;;;;;;8.30;4.40;;;14.80;99.90;;;;;;5112720;28;20421;-69
2021/10/09 13:50:12;;;;;;;6.00;4.60;;;14.80;99.90;;;;;;5112870;28;20294;-70
2021/10/09 13:52:40;;;;;;;7.15;4.65;;;14.70;99.90;;;;;;5112783;28;20272;-69
2021/10/09 13:55:09;;;;;;;8.27;4.68;;;14.70;99.90;;;;;;5112547;28;20194;-69
2021/10/09 13:57:37;;;;;;;5.53;4.43;;;14.70;99.90;;;;;;5115389;28;20228;-69
2021/10/09 14:00:08;;;;;;;6.30;4.60;;;14.70;99.90;;;;;;5115873;28;20676;-70
2021/10/09 14:02:36;;;;;;;6.05;4.60;;;14.70;99.90;;;;;;5116324;28;20274;-68
2021/10/09 14:05:05;;;;;;;6.90;4.32;;;14.70;99.90;;;;;;5109126;28;20233;-69
2021/10/09 14:07:33;;;;;;;5.38;4.20;;;14.70;99.90;;;;;;5112632;28;20290;-69
2021/10/09 14:10:01;;;;;;;6.45;4.38;;;14.60;99.90;;;;;;5115952;28;20227;-70
2021/10/09 14:12:28;;;;;;;4.95;4.20;;;14.60;99.90;;;;;;5113490;28;20234;-70
2021/10/09 14:14:56;;;;;;;8.13;4.43;;;14.60;99.90;;;;;;5112714;28;20278;-68
2021/10/09 14:17:28;;;;;;;4.97;4.35;;;14.50;99.90;;;;;;5115917;28;20235;-70
2021/10/09 14:19:59;;;;;;;7.03;4.30;;;14.50;99.90;;;;;;5114005;28;20283;-68
2021/10/09 14:22:27;;;;;;;5.65;4.30;;;14.50;99.90;;;;;;5113210;28;20197;-69
2021/10/09 14:24:55;;;;;;;5.60;4.45;;;14.50;99.90;;;;;;5106148;28;20207;-71
2021/10/09 14:27:23;;;;;;;5.93;4.50;;;14.50;99.90;;;;;;5115618;28;20223;-68
2021/10/09 14:29:51;;;;;;;5.28;3.80;;;14.50;99.90;;;;;;5115761;28;20229;-68
2021/10/09 14:32:19;;;;;;;5.50;4.40;;;14.50;99.90;;;;;;5109067;28;20220;-69
2021/10/09 14:34:48;;;;;;;6.15;4.13;;;14.70;99.90;;;;;;5095446;28;20238;-68
2021/10/09 14:37:16;;;;;;;7.85;4.40;;;14.80;99.90;;;;;;5109904;28;20219;-68